GJS4560 KDCA-KEWR
Flight info
| Callsign | GJS4560 |
|---|---|
| Flight time | 0h 44m |
| Altitude | 17000 |
| Route | SOOKI6 SWANN PHLBO4 |
| Aircraft | CRJ7/M-SDFGIRWY/S |
Departure
| Time | 2026-04-21 00:48 |
|---|---|
| Airport | Ronald Reagan Washington National Airport (KDCA) |
Arrival
| Time | 2026-04-21 01:33 |
|---|---|
| Airport | Newark Liberty International Airport (KEWR) |
| Time | Latitude | Longitude | Altitude | Speed | Heading |
|---|---|---|---|---|---|
| 2026-04-20 23:42 | 38.85003 | -77.04039 | 17 ft | 0 kts | 289° |
| 2026-04-21 00:00 | 38.85003 | -77.04040 | 17 ft | 0 kts | 289° |
| 2026-04-21 00:09 | 38.85004 | -77.04040 | 17 ft | 0 kts | 289° |
| 2026-04-21 00:12 | 38.85004 | -77.04041 | 17 ft | 0 kts | 289° |
| 2026-04-21 00:24 | 38.85004 | -77.04042 | 17 ft | 0 kts | 289° |
| 2026-04-21 00:27 | 38.85001 | -77.04032 | 17 ft | 2 kts | 288° |
| 2026-04-21 00:27 | 38.84997 | -77.04012 | 20 ft | 2 kts | 283° |
| 2026-04-21 00:27 | 38.84995 | -77.03991 | 18 ft | 2 kts | 265° |
| 2026-04-21 00:28 | 38.84999 | -77.03971 | 17 ft | 2 kts | 222° |
| 2026-04-21 00:28 | 38.85015 | -77.03962 | 20 ft | 2 kts | 187° |
| 2026-04-21 00:28 | 38.85031 | -77.03963 | 17 ft | 2 kts | 171° |
| 2026-04-21 00:28 | 38.85038 | -77.03964 | 16 ft | 0 kts | 167° |
| 2026-04-21 00:31 | 38.85034 | -77.03964 | 18 ft | 2 kts | 174° |
| 2026-04-21 00:31 | 38.85016 | -77.03962 | 19 ft | 4 kts | 175° |
| 2026-04-21 00:32 | 38.84980 | -77.03958 | 17 ft | 6 kts | 175° |
| 2026-04-21 00:32 | 38.84934 | -77.03953 | 16 ft | 7 kts | 174° |
| 2026-04-21 00:32 | 38.84895 | -77.03944 | 17 ft | 5 kts | 150° |
| 2026-04-21 00:32 | 38.84878 | -77.03899 | 18 ft | 7 kts | 89° |
| 2026-04-21 00:33 | 38.84880 | -77.03818 | 17 ft | 10 kts | 88° |
| 2026-04-21 00:33 | 38.84885 | -77.03730 | 18 ft | 9 kts | 78° |
| 2026-04-21 00:33 | 38.84903 | -77.03656 | 21 ft | 8 kts | 68° |
| 2026-04-21 00:33 | 38.84925 | -77.03595 | 23 ft | 7 kts | 65° |
| 2026-04-21 00:34 | 38.84942 | -77.03527 | 22 ft | 9 kts | 79° |
| 2026-04-21 00:34 | 38.84934 | -77.03451 | 24 ft | 9 kts | 116° |
| 2026-04-21 00:34 | 38.84914 | -77.03381 | 21 ft | 6 kts | 104° |
| 2026-04-21 00:34 | 38.84915 | -77.03354 | 20 ft | 1 kts | 57° |
| 2026-04-21 00:35 | 38.84916 | -77.03353 | 20 ft | 0 kts | 48° |
| 2026-04-21 00:45 | 38.84925 | -77.03341 | 22 ft | 6 kts | 48° |
| 2026-04-21 00:45 | 38.84962 | -77.03283 | 22 ft | 6 kts | 49° |
| 2026-04-21 00:45 | 38.84982 | -77.03259 | 22 ft | 5 kts | 32° |
| 2026-04-21 00:45 | 38.85013 | -77.03257 | 22 ft | 2 kts | 338° |
| 2026-04-21 00:46 | 38.85019 | -77.03262 | 22 ft | 0 kts | 324° |
| 2026-04-21 00:47 | 38.85049 | -77.03290 | 23 ft | 25 kts | 322° |
| 2026-04-21 00:48 | 38.85415 | -77.03648 | 18 ft | 107 kts | 323° |
| 2026-04-21 00:48 | 38.86125 | -77.04345 | 420 ft | 136 kts | 323° |
| 2026-04-21 00:48 | 38.86914 | -77.05027 | 1341 ft | 138 kts | 328° |
| 2026-04-21 00:48 | 38.87677 | -77.05704 | 2206 ft | 129 kts | 329° |
| 2026-04-21 00:49 | 38.88577 | -77.06457 | 2599 ft | 173 kts | 329° |
| 2026-04-21 00:49 | 38.89564 | -77.07444 | 3670 ft | 186 kts | 312° |
| 2026-04-21 00:49 | 38.90363 | -77.08836 | 4583 ft | 204 kts | 306° |
| 2026-04-21 00:49 | 38.91122 | -77.10269 | 5533 ft | 211 kts | 307° |
| 2026-04-21 00:50 | 38.92173 | -77.11562 | 6729 ft | 211 kts | 324° |
| 2026-04-21 00:50 | 38.93495 | -77.12560 | 7582 ft | 226 kts | 329° |
| 2026-04-21 00:50 | 38.94932 | -77.13535 | 8405 ft | 237 kts | 331° |
| 2026-04-21 00:50 | 38.96452 | -77.14480 | 9226 ft | 251 kts | 337° |
| 2026-04-21 00:51 | 38.97808 | -77.14771 | 10025 ft | 261 kts | 360° |
| 2026-04-21 00:51 | 38.99559 | -77.14069 | 10867 ft | 281 kts | 24° |
| 2026-04-21 00:51 | 39.01284 | -77.12689 | 11570 ft | 297 kts | 27° |
| 2026-04-21 00:51 | 39.02673 | -77.11476 | 12113 ft | 311 kts | 31° |
| 2026-04-21 00:52 | 39.03982 | -77.09588 | 12943 ft | 331 kts | 55° |
| 2026-04-21 00:52 | 39.04737 | -77.06929 | 13867 ft | 345 kts | 69° |
| 2026-04-21 00:52 | 39.05152 | -77.04184 | 14654 ft | 353 kts | 74° |
| 2026-04-21 00:52 | 39.05490 | -77.00972 | 15508 ft | 359 kts | 75° |
| 2026-04-21 00:53 | 39.05791 | -76.97826 | 16291 ft | 365 kts | 74° |
| 2026-04-21 00:53 | 39.06150 | -76.94522 | 16731 ft | 378 kts | 72° |
| 2026-04-21 00:53 | 39.06572 | -76.91174 | 16920 ft | 373 kts | 71° |
| 2026-04-21 00:53 | 39.06992 | -76.87957 | 16977 ft | 366 kts | 71° |
| 2026-04-21 00:54 | 39.07416 | -76.84670 | 17027 ft | 372 kts | 71° |
| 2026-04-21 00:54 | 39.07832 | -76.81395 | 17039 ft | 375 kts | 72° |
| 2026-04-21 00:54 | 39.08251 | -76.78063 | 17047 ft | 376 kts | 72° |
| 2026-04-21 00:54 | 39.08677 | -76.74716 | 17051 ft | 377 kts | 71° |
| 2026-04-21 00:55 | 39.09128 | -76.71418 | 17050 ft | 377 kts | 71° |
| 2026-04-21 00:55 | 39.09599 | -76.68104 | 17051 ft | 373 kts | 71° |
| 2026-04-21 00:55 | 39.10059 | -76.64857 | 17003 ft | 369 kts | 71° |
| 2026-04-21 00:55 | 39.10523 | -76.61584 | 17004 ft | 370 kts | 71° |
| 2026-04-21 00:56 | 39.10977 | -76.58343 | 17003 ft | 374 kts | 71° |
| 2026-04-21 00:56 | 39.11445 | -76.55018 | 17006 ft | 374 kts | 71° |
| 2026-04-21 00:56 | 39.11895 | -76.51739 | 16994 ft | 368 kts | 72° |
| 2026-04-21 00:56 | 39.12318 | -76.48531 | 16993 ft | 367 kts | 73° |
| 2026-04-21 00:57 | 39.12704 | -76.45248 | 17004 ft | 369 kts | 73° |
| 2026-04-21 00:57 | 39.13077 | -76.41993 | 17035 ft | 371 kts | 74° |
| 2026-04-21 00:57 | 39.13453 | -76.38659 | 17036 ft | 373 kts | 74° |
| 2026-04-21 00:57 | 39.13827 | -76.35354 | 17039 ft | 374 kts | 74° |
| 2026-04-21 00:58 | 39.14202 | -76.32063 | 17035 ft | 376 kts | 75° |
| 2026-04-21 00:58 | 39.14583 | -76.28697 | 17032 ft | 377 kts | 75° |
| 2026-04-21 00:58 | 39.14968 | -76.25373 | 17032 ft | 376 kts | 73° |
| 2026-04-21 00:58 | 39.15876 | -76.22330 | 17018 ft | 354 kts | 49° |
| 2026-04-21 00:59 | 39.17433 | -76.19936 | 17031 ft | 341 kts | 37° |
| 2026-04-21 00:59 | 39.19160 | -76.17910 | 17032 ft | 337 kts | 33° |
| 2026-04-21 00:59 | 39.20951 | -76.15946 | 17031 ft | 340 kts | 33° |
| 2026-04-21 00:59 | 39.22765 | -76.13957 | 17025 ft | 340 kts | 33° |
| 2026-04-21 01:00 | 39.24536 | -76.11966 | 17022 ft | 341 kts | 34° |
| 2026-04-21 01:00 | 39.26312 | -76.09894 | 17020 ft | 342 kts | 35° |
| 2026-04-21 01:00 | 39.28058 | -76.07846 | 17018 ft | 342 kts | 35° |
| 2026-04-21 01:00 | 39.29833 | -76.05761 | 17015 ft | 343 kts | 36° |
| 2026-04-21 01:01 | 39.31582 | -76.03708 | 17013 ft | 343 kts | 35° |
| 2026-04-21 01:01 | 39.33361 | -76.01618 | 17008 ft | 344 kts | 36° |
| 2026-04-21 01:01 | 39.35137 | -75.99529 | 17008 ft | 344 kts | 36° |
| 2026-04-21 01:01 | 39.36895 | -75.97455 | 16966 ft | 346 kts | 36° |
| 2026-04-21 01:02 | 39.38673 | -75.95361 | 16807 ft | 348 kts | 36° |
| 2026-04-21 01:02 | 39.40476 | -75.93233 | 16652 ft | 351 kts | 36° |
| 2026-04-21 01:02 | 39.42288 | -75.91098 | 16507 ft | 350 kts | 36° |
| 2026-04-21 01:02 | 39.44064 | -75.88998 | 16351 ft | 344 kts | 36° |
| 2026-04-21 01:03 | 39.45828 | -75.86911 | 16199 ft | 340 kts | 37° |
| 2026-04-21 01:03 | 39.47563 | -75.84864 | 16048 ft | 340 kts | 37° |
| 2026-04-21 01:03 | 39.49322 | -75.82781 | 15892 ft | 341 kts | 37° |
| 2026-04-21 01:03 | 39.51077 | -75.80700 | 15742 ft | 342 kts | 37° |
| 2026-04-21 01:04 | 39.52827 | -75.78627 | 15559 ft | 343 kts | 37° |
| 2026-04-21 01:04 | 39.54603 | -75.76521 | 15391 ft | 344 kts | 37° |
| 2026-04-21 01:04 | 39.56354 | -75.74444 | 15199 ft | 345 kts | 38° |
| 2026-04-21 01:04 | 39.58138 | -75.72325 | 15012 ft | 346 kts | 38° |
| 2026-04-21 01:05 | 39.59909 | -75.70229 | 14822 ft | 349 kts | 38° |
| 2026-04-21 01:05 | 39.61720 | -75.68077 | 14627 ft | 350 kts | 38° |
| 2026-04-21 01:05 | 39.63503 | -75.65957 | 14438 ft | 349 kts | 38° |
| 2026-04-21 01:05 | 39.65285 | -75.63834 | 14240 ft | 347 kts | 38° |
| 2026-04-21 01:06 | 39.67045 | -75.61727 | 14035 ft | 345 kts | 38° |
| 2026-04-21 01:06 | 39.68793 | -75.59621 | 13853 ft | 342 kts | 39° |
| 2026-04-21 01:06 | 39.70553 | -75.57505 | 13646 ft | 344 kts | 39° |
| 2026-04-21 01:06 | 39.72297 | -75.55407 | 13428 ft | 344 kts | 39° |
| 2026-04-21 01:07 | 39.74058 | -75.53288 | 13207 ft | 343 kts | 39° |
| 2026-04-21 01:07 | 39.75810 | -75.51178 | 12984 ft | 342 kts | 39° |
| 2026-04-21 01:07 | 39.77538 | -75.49093 | 12770 ft | 341 kts | 39° |
| 2026-04-21 01:07 | 39.79273 | -75.47002 | 12554 ft | 336 kts | 39° |
| 2026-04-21 01:08 | 39.80978 | -75.44938 | 12338 ft | 335 kts | 39° |
| 2026-04-21 01:08 | 39.82693 | -75.42868 | 12146 ft | 334 kts | 39° |
| 2026-04-21 01:08 | 39.84404 | -75.40797 | 11965 ft | 332 kts | 39° |
| 2026-04-21 01:08 | 39.86077 | -75.38774 | 11785 ft | 328 kts | 39° |
| 2026-04-21 01:09 | 39.87729 | -75.36777 | 11605 ft | 322 kts | 39° |
| 2026-04-21 01:09 | 39.89368 | -75.34798 | 11426 ft | 316 kts | 39° |
| 2026-04-21 01:09 | 39.90971 | -75.32855 | 11238 ft | 312 kts | 39° |
| 2026-04-21 01:09 | 39.92544 | -75.30952 | 11056 ft | 308 kts | 39° |
| 2026-04-21 01:10 | 39.94081 | -75.29082 | 10880 ft | 301 kts | 39° |
| 2026-04-21 01:10 | 39.95604 | -75.27232 | 10698 ft | 293 kts | 39° |
| 2026-04-21 01:10 | 39.97076 | -75.25427 | 10516 ft | 293 kts | 39° |
| 2026-04-21 01:10 | 39.98556 | -75.23591 | 10341 ft | 292 kts | 39° |
| 2026-04-21 01:11 | 40.00036 | -75.21762 | 10155 ft | 291 kts | 39° |
| 2026-04-21 01:11 | 40.01479 | -75.19989 | 9981 ft | 284 kts | 39° |
| 2026-04-21 01:11 | 40.02909 | -75.18238 | 9780 ft | 277 kts | 39° |
| 2026-04-21 01:11 | 40.04308 | -75.16539 | 9595 ft | 278 kts | 39° |
| 2026-04-21 01:12 | 40.05742 | -75.14800 | 9408 ft | 279 kts | 39° |
| 2026-04-21 01:12 | 40.07154 | -75.13086 | 9231 ft | 281 kts | 39° |
| 2026-04-21 01:12 | 40.08584 | -75.11342 | 9040 ft | 280 kts | 39° |
| 2026-04-21 01:12 | 40.10012 | -75.09598 | 8864 ft | 282 kts | 39° |
| 2026-04-21 01:13 | 40.11435 | -75.07850 | 8694 ft | 280 kts | 39° |
| 2026-04-21 01:13 | 40.12851 | -75.06110 | 8508 ft | 277 kts | 39° |
| 2026-04-21 01:13 | 40.14253 | -75.04389 | 8319 ft | 275 kts | 39° |
| 2026-04-21 01:13 | 40.15631 | -75.02702 | 8153 ft | 273 kts | 39° |
| 2026-04-21 01:14 | 40.17035 | -75.00985 | 8071 ft | 274 kts | 40° |
| 2026-04-21 01:14 | 40.18404 | -74.99305 | 8041 ft | 272 kts | 39° |
| 2026-04-21 01:14 | 40.19788 | -74.97605 | 8024 ft | 270 kts | 40° |
| 2026-04-21 01:14 | 40.21145 | -74.95931 | 7997 ft | 268 kts | 40° |
| 2026-04-21 01:15 | 40.22497 | -74.94269 | 8002 ft | 268 kts | 40° |
| 2026-04-21 01:15 | 40.23868 | -74.92585 | 8011 ft | 269 kts | 40° |
| 2026-04-21 01:15 | 40.25230 | -74.90886 | 8009 ft | 269 kts | 41° |
| 2026-04-21 01:15 | 40.26534 | -74.89183 | 8010 ft | 265 kts | 40° |
| 2026-04-21 01:16 | 40.27810 | -74.87453 | 8000 ft | 264 kts | 45° |
| 2026-04-21 01:16 | 40.29018 | -74.85633 | 7996 ft | 263 kts | 46° |
| 2026-04-21 01:16 | 40.30203 | -74.83796 | 8002 ft | 261 kts | 46° |
| 2026-04-21 01:16 | 40.31349 | -74.81995 | 8001 ft | 260 kts | 46° |
| 2026-04-21 01:17 | 40.32445 | -74.80096 | 7991 ft | 260 kts | 55° |
| 2026-04-21 01:17 | 40.33295 | -74.78021 | 8000 ft | 261 kts | 63° |
| 2026-04-21 01:17 | 40.33983 | -74.75793 | 7885 ft | 266 kts | 66° |
| 2026-04-21 01:17 | 40.34625 | -74.73515 | 7592 ft | 268 kts | 67° |
| 2026-04-21 01:18 | 40.35045 | -74.71981 | 7387 ft | 266 kts | 67° |
| 2026-04-21 01:18 | 40.35858 | -74.68948 | 6973 ft | 263 kts | 68° |
| 2026-04-21 01:18 | 40.36457 | -74.66695 | 6637 ft | 262 kts | 68° |
| 2026-04-21 01:18 | 40.37050 | -74.64452 | 6282 ft | 260 kts | 68° |
| 2026-04-21 01:19 | 40.37644 | -74.62218 | 5933 ft | 257 kts | 68° |
| 2026-04-21 01:19 | 40.38226 | -74.60025 | 5590 ft | 255 kts | 68° |
| 2026-04-21 01:19 | 40.38903 | -74.57888 | 5266 ft | 250 kts | 60° |
| 2026-04-21 01:19 | 40.39683 | -74.55911 | 5114 ft | 241 kts | 59° |
| 2026-04-21 01:20 | 40.40463 | -74.54016 | 5031 ft | 231 kts | 58° |
| 2026-04-21 01:20 | 40.40965 | -74.52792 | 5004 ft | 226 kts | 58° |
| 2026-04-21 01:20 | 40.41964 | -74.50401 | 4993 ft | 225 kts | 58° |
| 2026-04-21 01:20 | 40.42734 | -74.48580 | 4892 ft | 219 kts | 58° |
| 2026-04-21 01:21 | 40.43405 | -74.46959 | 4842 ft | 193 kts | 57° |
| 2026-04-21 01:21 | 40.44015 | -74.45452 | 4616 ft | 180 kts | 58° |
| 2026-04-21 01:21 | 40.44589 | -74.44019 | 4353 ft | 173 kts | 58° |
| 2026-04-21 01:21 | 40.45127 | -74.42658 | 4145 ft | 166 kts | 58° |
| 2026-04-21 01:22 | 40.45648 | -74.41321 | 4051 ft | 166 kts | 58° |
| 2026-04-21 01:22 | 40.46187 | -74.39947 | 4032 ft | 173 kts | 58° |
| 2026-04-21 01:22 | 40.46754 | -74.38517 | 4030 ft | 178 kts | 57° |
| 2026-04-21 01:22 | 40.47248 | -74.37668 | 3996 ft | 177 kts | 35° |
| 2026-04-21 01:23 | 40.48803 | -74.37585 | 3701 ft | 183 kts | 329° |
| 2026-04-21 01:23 | 40.49515 | -74.38917 | 3538 ft | 177 kts | 295° |
| 2026-04-21 01:23 | 40.49594 | -74.39965 | 3380 ft | 175 kts | 264° |
| 2026-04-21 01:23 | 40.48488 | -74.41344 | 3203 ft | 176 kts | 191° |
| 2026-04-21 01:24 | 40.47293 | -74.41179 | 3205 ft | 174 kts | 169° |
| 2026-04-21 01:24 | 40.46093 | -74.40889 | 3224 ft | 176 kts | 168° |
| 2026-04-21 01:24 | 40.44948 | -74.40355 | 3193 ft | 179 kts | 137° |
| 2026-04-21 01:24 | 40.44422 | -74.38924 | 3111 ft | 176 kts | 84° |
| 2026-04-21 01:25 | 40.44783 | -74.37473 | 3090 ft | 164 kts | 59° |
| 2026-04-21 01:25 | 40.45083 | -74.36579 | 3025 ft | 159 kts | 58° |
| 2026-04-21 01:25 | 40.45539 | -74.35275 | 2865 ft | 152 kts | 57° |
| 2026-04-21 01:25 | 40.45969 | -74.34064 | 2688 ft | 142 kts | 57° |
| 2026-04-21 01:26 | 40.46557 | -74.32448 | 2638 ft | 152 kts | 57° |
| 2026-04-21 01:26 | 40.46872 | -74.31619 | 2647 ft | 153 kts | 53° |
| 2026-04-21 01:26 | 40.47643 | -74.30731 | 2680 ft | 145 kts | 24° |
| 2026-04-21 01:26 | 40.48513 | -74.30035 | 2702 ft | 150 kts | 26° |
| 2026-04-21 01:27 | 40.49401 | -74.29327 | 2716 ft | 151 kts | 25° |
| 2026-04-21 01:27 | 40.50316 | -74.28632 | 2702 ft | 151 kts | 24° |
| 2026-04-21 01:27 | 40.51229 | -74.27979 | 2685 ft | 146 kts | 23° |
| 2026-04-21 01:27 | 40.52128 | -74.27365 | 2686 ft | 145 kts | 22° |
| 2026-04-21 01:28 | 40.53008 | -74.26786 | 2684 ft | 144 kts | 22° |
| 2026-04-21 01:28 | 40.53894 | -74.26212 | 2688 ft | 141 kts | 21° |
| 2026-04-21 01:28 | 40.54778 | -74.25648 | 2641 ft | 142 kts | 21° |
| 2026-04-21 01:28 | 40.55644 | -74.25098 | 2462 ft | 136 kts | 21° |
| 2026-04-21 01:29 | 40.56518 | -74.24554 | 2309 ft | 140 kts | 21° |
| 2026-04-21 01:29 | 40.57398 | -74.24000 | 2155 ft | 143 kts | 21° |
| 2026-04-21 01:29 | 40.58310 | -74.23425 | 1981 ft | 145 kts | 21° |
| 2026-04-21 01:29 | 40.59230 | -74.22842 | 1822 ft | 147 kts | 21° |
| 2026-04-21 01:30 | 40.60136 | -74.22266 | 1642 ft | 147 kts | 21° |
| 2026-04-21 01:30 | 40.61043 | -74.21694 | 1461 ft | 143 kts | 21° |
| 2026-04-21 01:30 | 40.61931 | -74.21131 | 1290 ft | 140 kts | 22° |
| 2026-04-21 01:30 | 40.62800 | -74.20573 | 1121 ft | 138 kts | 23° |
| 2026-04-21 01:31 | 40.63683 | -74.20021 | 948 ft | 140 kts | 24° |
| 2026-04-21 01:31 | 40.64502 | -74.19503 | 719 ft | 132 kts | 24° |
| 2026-04-21 01:31 | 40.65332 | -74.18960 | 590 ft | 135 kts | 23° |
| 2026-04-21 01:31 | 40.66181 | -74.18415 | 425 ft | 135 kts | 22° |
| 2026-04-21 01:32 | 40.66954 | -74.17920 | 263 ft | 136 kts | 21° |
| 2026-04-21 01:32 | 40.67799 | -74.17390 | 95 ft | 131 kts | 20° |
| 2026-04-21 01:32 | 40.68477 | -74.16961 | 17 ft | 122 kts | 22° |
| 2026-04-21 01:32 | 40.69038 | -74.16616 | 19 ft | 77 kts | 26° |
| 2026-04-21 01:33 | 40.69366 | -74.16404 | 23 ft | 21 kts | 26° |
| 2026-04-21 01:33 | 40.69502 | -74.16321 | 20 ft | 22 kts | 20° |
| 2026-04-21 01:33 | 40.69633 | -74.16292 | 18 ft | 17 kts | 1° |
| 2026-04-21 01:33 | 40.69714 | -74.16299 | 19 ft | 7 kts | 354° |
| 2026-04-21 01:34 | 40.69750 | -74.16308 | 16 ft | 5 kts | 324° |
| 2026-04-21 01:34 | 40.69752 | -74.16340 | 16 ft | 7 kts | 247° |
| 2026-04-21 01:34 | 40.69735 | -74.16413 | 16 ft | 10 kts | 268° |
| 2026-04-21 01:34 | 40.69760 | -74.16504 | 15 ft | 12 kts | 295° |
| 2026-04-21 01:35 | 40.69795 | -74.16606 | 13 ft | 11 kts | 292° |
| 2026-04-21 01:35 | 40.69788 | -74.16667 | 13 ft | 7 kts | 229° |
| 2026-04-21 01:35 | 40.69750 | -74.16699 | 14 ft | 5 kts | 205° |
| 2026-04-21 01:35 | 40.69716 | -74.16721 | 16 ft | 5 kts | 206° |
| 2026-04-21 01:36 | 40.69684 | -74.16758 | 17 ft | 8 kts | 236° |
| 2026-04-21 01:36 | 40.69666 | -74.16819 | 18 ft | 7 kts | 252° |
| 2026-04-21 01:36 | 40.69649 | -74.16892 | 17 ft | 10 kts | 252° |
| 2026-04-21 01:36 | 40.69626 | -74.16982 | 18 ft | 10 kts | 250° |
| 2026-04-21 01:37 | 40.69604 | -74.17061 | 18 ft | 8 kts | 252° |
| 2026-04-21 01:37 | 40.69623 | -74.17119 | 19 ft | 7 kts | 330° |
| 2026-04-21 01:37 | 40.69669 | -74.17149 | 21 ft | 8 kts | 330° |
| 2026-04-21 01:37 | 40.69718 | -74.17189 | 19 ft | 8 kts | 326° |
| 2026-04-21 01:38 | 40.69757 | -74.17228 | 19 ft | 7 kts | 319° |
| 2026-04-21 01:38 | 40.69780 | -74.17256 | 20 ft | 3 kts | 315° |
| 2026-04-21 01:38 | 40.69788 | -74.17289 | 20 ft | 5 kts | 259° |
| 2026-04-21 01:38 | 40.69760 | -74.17336 | 20 ft | 8 kts | 217° |
| 2026-04-21 01:39 | 40.69717 | -74.17379 | 19 ft | 9 kts | 219° |
| 2026-04-21 01:39 | 40.69669 | -74.17433 | 18 ft | 10 kts | 221° |
| 2026-04-21 01:39 | 40.69639 | -74.17468 | 18 ft | 5 kts | 221° |
| 2026-04-21 01:39 | 40.69613 | -74.17497 | 18 ft | 4 kts | 221° |
| 2026-04-21 01:40 | 40.69601 | -74.17511 | 18 ft | 3 kts | 219° |
| 2026-04-21 01:40 | 40.69585 | -74.17533 | 18 ft | 2 kts | 238° |
| 2026-04-21 01:40 | 40.69579 | -74.17555 | 19 ft | 1 kts | 271° |
| 2026-04-21 01:40 | 40.69581 | -74.17569 | 18 ft | 2 kts | 292° |
| 2026-04-21 01:41 | 40.69588 | -74.17584 | 18 ft | 2 kts | 304° |
| 2026-04-21 01:41 | 40.69593 | -74.17594 | 19 ft | 1 kts | 304° |
| 2026-04-21 01:41 | 40.69596 | -74.17599 | 19 ft | 0 kts | 304° |
| 2026-04-21 01:44 | 40.69596 | -74.17600 | 19 ft | 0 kts | 304° |
| 2026-04-21 01:45 | 40.69597 | -74.17600 | 19 ft | 0 kts | 304° |